createdAt,value
2018-12-15T00:01:30.499Z,99.90
2018-12-15T00:06:15.341Z,99.90
2018-12-15T00:11:00.178Z,98.60
2018-12-15T00:15:45.007Z,98.90
2018-12-15T00:20:29.993Z,99.00
2018-12-15T00:25:14.825Z,99.90
2018-12-15T00:29:59.602Z,99.90
2018-12-15T00:34:44.479Z,99.90
2018-12-15T00:39:29.412Z,99.90
2018-12-15T00:44:14.396Z,99.90
2018-12-15T00:48:59.228Z,99.90
2018-12-15T00:53:44.032Z,99.90
2018-12-15T00:58:28.940Z,99.90
2018-12-15T01:03:13.919Z,99.90
2018-12-15T01:07:58.892Z,99.90
2018-12-15T01:12:43.794Z,99.90
2018-12-15T01:17:28.609Z,99.90
2018-12-15T01:22:13.455Z,99.90
2018-12-15T01:26:58.301Z,99.90
2018-12-15T01:31:43.072Z,99.90
2018-12-15T01:36:27.896Z,99.90
2018-12-15T01:41:12.742Z,99.90
2018-12-15T01:45:57.516Z,99.90
2018-12-15T01:50:42.300Z,99.90
2018-12-15T01:55:27.151Z,99.90
2018-12-15T02:00:13.446Z,99.90
2018-12-15T02:04:58.269Z,99.90
2018-12-15T02:09:43.035Z,99.90
2018-12-15T02:14:27.833Z,99.90
2018-12-15T02:19:12.802Z,99.90
2018-12-15T02:23:57.637Z,99.90
2018-12-15T02:28:42.466Z,99.90
2018-12-15T02:33:27.248Z,99.90
2018-12-15T02:38:12.167Z,99.80
2018-12-15T02:42:57.102Z,99.90
2018-12-15T02:47:42.170Z,98.80
2018-12-15T02:52:27.002Z,99.90
2018-12-15T02:57:11.839Z,99.90
2018-12-15T03:01:56.655Z,99.90
2018-12-15T03:06:41.522Z,99.90
2018-12-15T03:11:26.318Z,99.90
2018-12-15T03:16:11.186Z,99.90
2018-12-15T03:21:01.871Z,99.90
2018-12-15T03:25:46.632Z,99.90
2018-12-15T03:30:31.409Z,99.90
2018-12-15T03:35:16.207Z,99.90
2018-12-15T03:40:01.067Z,99.90
2018-12-15T03:44:45.862Z,99.90
2018-12-15T03:49:30.654Z,99.90
2018-12-15T03:54:15.480Z,97.30
2018-12-15T03:59:00.352Z,94.60
2018-12-15T04:03:45.131Z,94.30
2018-12-15T04:08:29.917Z,94.50
2018-12-15T04:13:14.769Z,94.80
2018-12-15T04:18:03.700Z,94.30
2018-12-15T04:22:46.529Z,95.40
2018-12-15T04:27:31.397Z,95.40
2018-12-15T04:32:16.208Z,94.30
2018-12-15T04:37:01.119Z,94.50
2018-12-15T04:41:45.954Z,95.20
2018-12-15T04:46:30.777Z,97.20
2018-12-15T04:51:15.577Z,97.20
2018-12-15T04:56:00.449Z,96.20
2018-12-15T05:00:45.366Z,94.80
2018-12-15T05:05:30.299Z,91.50
2018-12-15T05:10:15.152Z,91.60
2018-12-15T05:15:00.031Z,91.00
2018-12-15T05:19:44.959Z,92.10
2018-12-15T05:24:29.768Z,92.00
2018-12-15T05:29:14.689Z,90.90
2018-12-15T05:33:59.708Z,90.90
2018-12-15T05:38:44.483Z,91.20
2018-12-15T05:43:29.348Z,91.10
2018-12-15T05:48:14.103Z,90.60
2018-12-15T05:52:59.012Z,88.70
2018-12-15T05:57:43.822Z,89.00
2018-12-15T06:02:29.159Z,86.40
2018-12-15T06:07:13.989Z,87.50
2018-12-15T06:11:58.953Z,87.30
2018-12-15T06:16:43.839Z,86.70
2018-12-15T06:21:28.653Z,87.20
2018-12-15T06:26:13.494Z,86.00
2018-12-15T06:30:58.283Z,84.40
2018-12-15T06:35:43.164Z,85.90
2018-12-15T06:40:27.907Z,85.30
2018-12-15T06:45:12.772Z,87.60
2018-12-15T06:49:57.726Z,88.10
2018-12-15T06:54:42.451Z,87.00
2018-12-15T06:59:27.372Z,86.90
2018-12-15T07:04:12.300Z,87.10
2018-12-15T07:08:57.259Z,85.00
2018-12-15T07:13:42.254Z,88.90
2018-12-15T07:18:27.115Z,87.40
2018-12-15T07:23:11.948Z,88.20
2018-12-15T07:27:56.755Z,87.80
2018-12-15T07:32:41.566Z,84.90
2018-12-15T07:37:26.452Z,82.20
2018-12-15T07:42:11.885Z,83.80
2018-12-15T07:46:56.741Z,84.20
2018-12-15T07:51:41.557Z,87.80
2018-12-15T07:56:27.765Z,88.70
2018-12-15T08:01:12.640Z,90.30
2018-12-15T08:05:58.565Z,91.70
2018-12-15T08:10:48.566Z,92.40
2018-12-15T08:15:33.542Z,92.90
2018-12-15T08:20:18.498Z,91.50
2018-12-15T08:25:03.490Z,92.20
2018-12-15T08:29:48.436Z,91.40
2018-12-15T08:34:33.200Z,90.20
2018-12-15T08:39:18.168Z,89.30
2018-12-15T08:44:03.126Z,90.10
2018-12-15T08:48:47.900Z,93.80
2018-12-15T08:53:32.841Z,90.60
2018-12-15T08:58:17.572Z,84.40
2018-12-15T09:03:02.423Z,77.60
2018-12-15T09:07:47.258Z,69.40
2018-12-15T09:12:32.100Z,62.40
2018-12-15T09:17:16.770Z,61.30
2018-12-15T09:22:01.500Z,58.70
2018-12-15T09:26:46.286Z,57.10
2018-12-15T09:31:31.204Z,52.40
2018-12-15T09:36:16.007Z,55.50
2018-12-15T09:41:01.225Z,60.50
2018-12-15T09:45:46.017Z,60.30
2018-12-15T09:50:30.942Z,60.40
2018-12-15T09:55:15.800Z,61.60
2018-12-15T10:00:01.013Z,61.20
2018-12-15T10:04:46.004Z,57.30
2018-12-15T10:09:30.942Z,54.80
2018-12-15T10:14:15.992Z,54.70
2018-12-15T10:19:01.008Z,56.50
2018-12-15T10:23:45.939Z,56.80
2018-12-15T10:28:30.898Z,56.10
2018-12-15T10:33:17.003Z,56.90
2018-12-15T10:38:01.990Z,57.00
2018-12-15T10:42:46.932Z,57.80
2018-12-15T10:47:31.910Z,58.50
2018-12-15T10:52:16.829Z,56.80
2018-12-15T10:57:01.772Z,55.40
2018-12-15T11:01:46.682Z,52.90
2018-12-15T11:06:31.588Z,51.60
2018-12-15T11:11:16.474Z,45.60
2018-12-15T11:16:01.317Z,42.50
2018-12-15T11:20:46.165Z,44.00
2018-12-15T11:25:31.017Z,42.50
2018-12-15T11:30:15.832Z,41.60
2018-12-15T11:35:00.716Z,40.20
2018-12-15T11:39:45.686Z,40.10
2018-12-15T11:44:30.653Z,38.10
2018-12-15T11:49:15.522Z,39.60
2018-12-15T11:54:00.375Z,43.90
2018-12-15T11:58:45.190Z,45.60
2018-12-15T12:03:30.113Z,48.00
2018-12-15T12:08:15.109Z,51.40
2018-12-15T12:13:00.089Z,50.20
2018-12-15T12:17:45.097Z,51.90
2018-12-15T12:22:29.962Z,50.10
2018-12-15T12:27:14.858Z,49.20
2018-12-15T12:31:59.758Z,45.50
2018-12-15T12:36:44.769Z,42.00
2018-12-15T12:41:29.812Z,38.60
2018-12-15T12:46:14.966Z,37.20
2018-12-15T12:51:00.195Z,35.50
2018-12-15T12:55:45.321Z,34.70
2018-12-15T13:00:30.363Z,33.30
2018-12-15T13:05:15.255Z,33.40
2018-12-15T13:10:00.219Z,31.80
2018-12-15T13:14:45.059Z,32.10
2018-12-15T13:19:30.252Z,31.60
2018-12-15T13:24:15.449Z,32.00
2018-12-15T13:29:00.426Z,31.00
2018-12-15T13:33:45.432Z,32.10
2018-12-15T13:38:30.311Z,33.30
2018-12-15T13:43:15.276Z,34.20
2018-12-15T13:48:00.219Z,35.20
2018-12-15T13:52:45.557Z,33.70
2018-12-15T13:57:30.524Z,33.20
2018-12-15T14:02:15.547Z,32.50
2018-12-15T14:07:00.409Z,31.60
2018-12-15T14:11:45.498Z,32.90
2018-12-15T14:16:30.426Z,39.60
2018-12-15T14:21:15.472Z,45.90
2018-12-15T14:26:02.546Z,50.40
2018-12-15T14:30:47.621Z,54.60
2018-12-15T14:35:32.574Z,56.70
2018-12-15T14:40:17.656Z,58.30
2018-12-15T14:45:02.579Z,59.80
2018-12-15T14:49:47.566Z,61.60
2018-12-15T14:54:32.528Z,63.40
2018-12-15T14:59:17.487Z,63.00
2018-12-15T15:04:02.392Z,63.20
2018-12-15T15:08:47.356Z,65.50
2018-12-15T15:13:34.676Z,68.90
2018-12-15T15:18:19.089Z,72.30
2018-12-15T15:23:03.965Z,75.50
2018-12-15T15:27:48.834Z,78.10
2018-12-15T15:32:33.660Z,81.20
2018-12-15T15:37:18.611Z,84.00
2018-12-15T15:42:03.474Z,85.50
2018-12-15T15:46:48.359Z,88.50
2018-12-15T15:51:33.278Z,90.00
2018-12-15T15:56:18.246Z,90.30
2018-12-15T16:01:03.076Z,90.50
2018-12-15T16:05:47.943Z,90.50
2018-12-15T16:10:32.837Z,91.10
2018-12-15T16:15:17.723Z,91.80
2018-12-15T16:20:02.575Z,91.60
2018-12-15T16:24:47.482Z,91.90
2018-12-15T16:29:32.352Z,92.90
2018-12-15T16:34:17.334Z,92.80
2018-12-15T16:39:02.189Z,93.50
2018-12-15T16:43:47.136Z,94.80
2018-12-15T16:48:32.011Z,95.60
2018-12-15T16:53:17.008Z,95.90
2018-12-15T16:58:01.977Z,95.30
2018-12-15T17:02:46.867Z,93.70
2018-12-15T17:07:31.799Z,94.50
2018-12-15T17:12:16.675Z,96.50
2018-12-15T17:17:01.541Z,96.90
2018-12-15T17:21:46.606Z,96.40
2018-12-15T17:26:31.585Z,98.00
2018-12-15T17:31:17.140Z,97.10
2018-12-15T17:36:02.007Z,96.70
2018-12-15T17:40:46.959Z,96.00
2018-12-15T17:45:32.018Z,98.50
2018-12-15T17:50:16.938Z,99.00
2018-12-15T17:55:01.782Z,97.40
2018-12-15T17:59:46.713Z,96.90
2018-12-15T18:04:31.519Z,98.50
2018-12-15T18:09:16.611Z,99.60
2018-12-15T18:14:01.449Z,98.10
2018-12-15T18:18:46.382Z,98.30
2018-12-15T18:23:31.228Z,99.90
2018-12-15T18:28:16.132Z,99.90
2018-12-15T18:33:01.017Z,99.90
2018-12-15T18:37:45.875Z,99.90
2018-12-15T18:42:30.724Z,99.90
2018-12-15T18:47:15.721Z,99.90
2018-12-15T18:52:00.605Z,99.90
2018-12-15T18:56:45.843Z,99.90
2018-12-15T19:01:30.780Z,99.90
2018-12-15T19:06:15.686Z,99.90
2018-12-15T19:11:01.445Z,99.90
2018-12-15T19:15:47.142Z,99.90
2018-12-15T19:20:32.283Z,99.90
2018-12-15T19:25:17.239Z,99.90
2018-12-15T19:30:02.324Z,99.90
2018-12-15T19:34:52.406Z,99.90
2018-12-15T19:39:34.681Z,99.90
2018-12-15T19:44:19.592Z,99.90
2018-12-15T19:49:05.778Z,99.90
2018-12-15T19:53:50.862Z,99.90
2018-12-15T19:58:36.148Z,99.90
2018-12-15T20:03:20.962Z,99.90
2018-12-15T20:08:06.124Z,99.90
2018-12-15T20:12:51.159Z,99.90
2018-12-15T20:17:36.154Z,99.90
2018-12-15T20:22:21.218Z,99.90
2018-12-15T20:27:06.453Z,99.90
2018-12-15T20:31:51.419Z,99.90
2018-12-15T20:36:36.417Z,99.90
2018-12-15T20:41:21.317Z,99.90
2018-12-15T20:46:06.468Z,99.90
2018-12-15T20:50:51.398Z,99.90
2018-12-15T20:55:36.290Z,99.90
2018-12-15T21:00:21.357Z,99.90
2018-12-15T21:05:06.743Z,99.90
2018-12-15T21:09:51.596Z,99.90
2018-12-15T21:14:37.710Z,99.90
2018-12-15T21:19:22.587Z,99.90
2018-12-15T21:24:07.607Z,99.90
2018-12-15T21:28:52.621Z,99.90
2018-12-15T21:33:37.650Z,99.90
2018-12-15T21:38:22.771Z,99.90
2018-12-15T21:43:07.695Z,99.90
2018-12-15T21:47:57.686Z,99.90
2018-12-15T21:52:40.974Z,99.90
2018-12-15T21:57:26.052Z,99.90
2018-12-15T22:02:11.094Z,99.90
2018-12-15T22:06:56.098Z,99.90
2018-12-15T22:11:41.930Z,99.90
2018-12-15T22:16:27.038Z,99.90
2018-12-15T22:21:11.985Z,99.90
2018-12-15T22:25:56.951Z,99.90
2018-12-15T22:30:42.050Z,99.90
2018-12-15T22:35:27.014Z,99.90
2018-12-15T22:40:12.992Z,99.90
2018-12-15T22:44:58.202Z,99.90
2018-12-15T22:49:43.194Z,99.90
2018-12-15T22:54:28.242Z,99.90
2018-12-15T22:59:13.186Z,99.90
2018-12-15T23:03:58.127Z,99.90
2018-12-15T23:08:42.964Z,99.90
2018-12-15T23:13:27.959Z,99.90
2018-12-15T23:18:12.740Z,99.90
2018-12-15T23:22:57.587Z,99.90
2018-12-15T23:27:42.498Z,99.90
2018-12-15T23:32:27.444Z,99.90
2018-12-15T23:37:12.342Z,99.90
2018-12-15T23:41:57.261Z,99.90
2018-12-15T23:46:42.427Z,99.90
2018-12-15T23:51:27.268Z,99.90
2018-12-15T23:56:12.138Z,99.90
